createdAt,value
2022-10-15T00:03:49.040Z,14.60
2022-10-15T00:08:53.173Z,14.50
2022-10-15T00:13:58.771Z,14.70
2022-10-15T00:19:01.665Z,14.70
2022-10-15T00:24:06.506Z,14.80
2022-10-15T00:29:09.337Z,14.60
2022-10-15T00:34:12.193Z,14.40
2022-10-15T00:39:16.338Z,14.30
2022-10-15T00:44:58.794Z,14.30
2022-10-15T00:50:06.717Z,14.40
2022-10-15T00:55:15.053Z,14.50
2022-10-15T01:00:19.390Z,14.50
2022-10-15T01:05:22.920Z,14.50
2022-10-15T01:10:33.881Z,14.40
2022-10-15T01:15:44.449Z,14.50
2022-10-15T01:21:11.044Z,14.50
2022-10-15T01:26:47.511Z,14.40
2022-10-15T01:32:02.363Z,14.40
2022-10-15T01:37:15.301Z,14.30
2022-10-15T01:42:26.868Z,14.20
2022-10-15T01:47:37.489Z,14.20
2022-10-15T01:52:42.832Z,14.10
2022-10-15T01:57:47.100Z,14.10
2022-10-15T02:02:51.198Z,14.10
2022-10-15T02:07:59.903Z,14.10
2022-10-15T02:13:10.984Z,14.10
2022-10-15T02:18:22.453Z,14.20
2022-10-15T02:23:29.648Z,14.30
2022-10-15T02:28:35.578Z,14.30
2022-10-15T02:33:40.206Z,14.30
2022-10-15T02:38:46.000Z,14.40
2022-10-15T02:43:49.362Z,14.30
2022-10-15T02:48:53.427Z,14.40
2022-10-15T02:53:56.206Z,14.40
2022-10-15T02:58:58.958Z,14.50
2022-10-15T03:04:03.732Z,14.50
2022-10-15T03:09:06.768Z,14.40
2022-10-15T03:14:09.558Z,14.40
2022-10-15T03:19:13.734Z,14.40
2022-10-15T03:24:16.515Z,14.40
2022-10-15T03:29:19.273Z,14.40
2022-10-15T03:34:23.376Z,14.30
2022-10-15T03:39:26.189Z,14.20
2022-10-15T03:44:29.032Z,14.30
2022-10-15T03:49:33.231Z,14.30
2022-10-15T03:54:35.973Z,14.30
2022-10-15T03:59:39.122Z,14.40
2022-10-15T04:04:43.301Z,14.40
2022-10-15T04:09:46.065Z,14.40
2022-10-15T04:14:48.850Z,14.40
2022-10-15T04:19:52.966Z,14.40
2022-10-15T04:24:55.763Z,14.40
2022-10-15T04:29:58.500Z,14.40
2022-10-15T04:35:02.584Z,14.40
2022-10-15T04:40:06.275Z,14.40
2022-10-15T04:45:10.128Z,14.30
2022-10-15T04:50:14.327Z,14.20
2022-10-15T04:55:17.200Z,14.00
2022-10-15T05:00:20.012Z,13.90
2022-10-15T05:05:24.165Z,13.70
2022-10-15T05:10:26.929Z,13.60
2022-10-15T05:15:29.742Z,13.60
2022-10-15T05:20:33.829Z,13.70
2022-10-15T05:25:36.625Z,13.70
2022-10-15T05:30:39.395Z,13.80
2022-10-15T05:35:43.482Z,13.90
2022-10-15T05:40:49.499Z,13.90
2022-10-15T05:45:55.057Z,14.00
2022-10-15T05:51:03.320Z,14.10
2022-10-15T05:56:06.531Z,14.10
2022-10-15T06:01:11.465Z,14.20
2022-10-15T06:06:18.097Z,14.20
2022-10-15T06:11:21.388Z,14.30
2022-10-15T06:16:24.396Z,14.40
2022-10-15T06:21:28.560Z,14.40
2022-10-15T06:26:31.313Z,14.50
2022-10-15T06:31:34.178Z,14.50
2022-10-15T06:36:38.963Z,14.60
2022-10-15T06:41:41.767Z,14.90
2022-10-15T06:46:44.550Z,15.10
2022-10-15T06:51:48.672Z,15.20
2022-10-15T06:56:51.662Z,15.30
2022-10-15T07:01:54.409Z,15.40
2022-10-15T07:06:58.511Z,15.50
2022-10-15T07:12:01.265Z,15.50
2022-10-15T07:17:04.008Z,15.60
2022-10-15T07:22:08.096Z,15.80
2022-10-15T07:27:18.711Z,16.00
2022-10-15T07:32:22.294Z,16.20
2022-10-15T07:37:26.745Z,16.20
2022-10-15T07:42:29.542Z,16.30
2022-10-15T07:47:32.383Z,16.50
2022-10-15T07:52:36.475Z,17.30
2022-10-15T07:57:39.296Z,17.80
2022-10-15T08:02:42.095Z,18.30
2022-10-15T08:07:46.275Z,18.90
2022-10-15T08:12:49.175Z,18.60
2022-10-15T08:17:52.004Z,17.80
2022-10-15T08:22:56.125Z,17.10
2022-10-15T08:27:59.218Z,17.00
2022-10-15T08:33:02.065Z,17.20
2022-10-15T08:38:06.572Z,17.30
2022-10-15T08:43:18.657Z,17.80
2022-10-15T08:48:35.101Z,18.00
2022-10-15T08:53:43.559Z,18.20
2022-10-15T08:58:54.639Z,18.40
2022-10-15T09:04:08.006Z,18.20
2022-10-15T09:09:20.801Z,18.00
2022-10-15T09:14:28.562Z,17.90
2022-10-15T09:19:33.092Z,17.60
2022-10-15T09:24:37.616Z,17.90
2022-10-15T09:29:47.243Z,18.70
2022-10-15T09:34:56.533Z,19.60
2022-10-15T09:40:28.376Z,20.00
2022-10-15T09:45:31.168Z,19.50
2022-10-15T09:50:41.748Z,18.70
2022-10-15T09:55:51.321Z,18.70
2022-10-15T10:01:05.407Z,18.50
2022-10-15T10:06:10.362Z,18.40
2022-10-15T10:11:14.797Z,18.70
2022-10-15T10:16:20.281Z,18.90
2022-10-15T10:21:26.520Z,19.60
2022-10-15T10:26:36.557Z,19.70
2022-10-15T10:31:42.962Z,19.90
2022-10-15T10:36:51.124Z,19.40
2022-10-15T10:41:56.959Z,19.20
2022-10-15T10:47:11.915Z,19.30
2022-10-15T10:52:27.269Z,19.70
2022-10-15T10:57:42.502Z,19.60
2022-10-15T11:02:45.282Z,20.00
2022-10-15T11:07:52.919Z,20.40
2022-10-15T11:18:31.554Z,20.10
2022-10-15T11:23:49.131Z,19.70
2022-10-15T11:29:06.753Z,19.60
2022-10-15T11:34:26.495Z,19.90
2022-10-15T11:39:44.038Z,19.80
2022-10-15T11:45:17.226Z,19.70
2022-10-15T11:50:28.940Z,19.80
2022-10-15T11:55:39.786Z,19.70
2022-10-15T12:00:48.055Z,19.60
2022-10-15T12:05:53.943Z,19.70
2022-10-15T12:11:08.996Z,20.00
2022-10-15T12:16:22.317Z,20.60
2022-10-15T12:21:33.947Z,21.20
2022-10-15T12:26:36.960Z,21.20
2022-10-15T12:31:50.134Z,20.60
2022-10-15T12:37:01.776Z,20.00
2022-10-15T12:42:04.965Z,19.60
2022-10-15T12:47:12.111Z,19.30
2022-10-15T12:52:56.791Z,19.10
2022-10-15T12:58:02.776Z,19.10
2022-10-15T13:03:28.618Z,19.40
2022-10-15T13:08:31.820Z,20.10
2022-10-15T13:13:36.480Z,22.20
2022-10-15T13:18:44.110Z,24.40
2022-10-15T13:23:48.484Z,29.50
2022-10-15T13:28:52.823Z,34.50
2022-10-15T13:34:01.008Z,36.20
2022-10-15T13:39:07.113Z,34.50
2022-10-15T13:44:21.707Z,29.20
2022-10-15T13:49:28.752Z,25.20
2022-10-15T13:54:32.196Z,22.90
2022-10-15T13:59:35.166Z,22.00
2022-10-15T14:04:49.408Z,22.10
2022-10-15T14:10:07.597Z,23.30
2022-10-15T14:15:45.155Z,21.70
2022-10-15T14:20:50.318Z,26.30
2022-10-15T14:25:58.442Z,28.30
2022-10-15T14:31:27.383Z,25.50
2022-10-15T14:36:42.001Z,25.90
2022-10-15T14:41:56.646Z,23.70
2022-10-15T14:47:02.868Z,23.50
2022-10-15T14:52:20.499Z,21.90
2022-10-15T14:57:26.170Z,21.40
2022-10-15T15:02:30.279Z,21.40
2022-10-15T15:07:34.380Z,23.50
2022-10-15T15:12:40.989Z,24.80
2022-10-15T15:17:44.938Z,24.60
2022-10-15T15:22:50.665Z,23.20
2022-10-15T15:27:53.445Z,22.50
2022-10-15T15:32:56.227Z,21.60
2022-10-15T15:38:01.368Z,20.60
2022-10-15T15:43:07.451Z,20.00
2022-10-15T15:48:12.837Z,19.50
2022-10-15T15:53:19.139Z,19.20
2022-10-15T15:58:26.540Z,18.80
2022-10-15T16:03:40.974Z,18.50
2022-10-15T16:08:45.090Z,18.10
2022-10-15T16:14:09.296Z,18.00
2022-10-15T16:19:14.477Z,17.80
2022-10-15T16:24:18.690Z,17.60
2022-10-15T16:29:21.461Z,17.40
2022-10-15T16:34:25.687Z,17.10
2022-10-15T16:39:29.780Z,16.90
2022-10-15T16:44:32.560Z,17.00
2022-10-15T16:49:36.375Z,17.10
2022-10-15T16:54:41.107Z,17.10
2022-10-15T16:59:44.039Z,17.10
2022-10-15T17:04:50.971Z,17.10
2022-10-15T17:09:58.796Z,17.10
2022-10-15T17:15:01.646Z,17.10
2022-10-15T17:20:05.735Z,17.10
2022-10-15T17:25:10.650Z,16.90
2022-10-15T17:30:13.605Z,16.70
2022-10-15T17:35:16.801Z,16.50
2022-10-15T17:40:21.051Z,16.40
2022-10-15T17:45:24.407Z,16.20
2022-10-15T17:50:35.406Z,16.00
2022-10-15T17:55:39.628Z,15.90
2022-10-15T18:00:42.551Z,15.70
2022-10-15T18:05:46.168Z,15.70
2022-10-15T18:10:53.934Z,15.70
2022-10-15T18:16:00.187Z,15.60
2022-10-15T18:21:03.654Z,15.60
2022-10-15T18:26:12.932Z,15.50
2022-10-15T18:31:18.057Z,15.50
2022-10-15T18:36:23.121Z,15.50
2022-10-15T18:41:29.452Z,15.40
2022-10-15T18:46:33.846Z,15.40
2022-10-15T18:51:39.956Z,15.30
2022-10-15T18:56:45.238Z,15.40
2022-10-15T19:02:01.256Z,15.30
2022-10-15T19:07:04.559Z,15.30
2022-10-15T19:12:08.717Z,15.30
2022-10-15T19:17:13.307Z,15.30
2022-10-15T19:22:17.498Z,15.20
2022-10-15T19:27:21.886Z,15.20
2022-10-15T19:32:25.938Z,15.20
2022-10-15T19:37:28.954Z,15.20
2022-10-15T19:42:50.773Z,15.20
2022-10-15T19:48:01.447Z,15.20
2022-10-15T19:53:19.778Z,15.10
2022-10-15T19:58:25.022Z,14.90
2022-10-15T20:03:29.661Z,15.00
2022-10-15T20:08:32.712Z,15.20
2022-10-15T20:13:37.465Z,15.20
2022-10-15T20:18:40.409Z,15.20
2022-10-15T20:23:44.568Z,15.20
2022-10-15T20:28:48.704Z,15.10
2022-10-15T20:33:51.515Z,15.10
2022-10-15T20:38:55.552Z,15.10
2022-10-15T20:43:59.844Z,15.10
2022-10-15T20:49:08.922Z,15.20
2022-10-15T20:54:13.837Z,15.40
2022-10-15T20:59:18.143Z,15.60
2022-10-15T21:04:20.989Z,15.70
2022-10-15T21:09:24.101Z,15.80
2022-10-15T21:14:28.230Z,15.80
2022-10-15T21:19:31.424Z,15.90
2022-10-15T21:24:35.210Z,15.90
2022-10-15T21:29:39.508Z,15.90
2022-10-15T21:34:42.269Z,16.00
2022-10-15T21:39:45.046Z,16.10
2022-10-15T21:44:49.158Z,16.10
2022-10-15T21:49:51.940Z,16.10
2022-10-15T21:54:55.265Z,16.20
2022-10-15T21:59:59.494Z,16.10
2022-10-15T22:05:02.240Z,16.10
2022-10-15T22:10:05.657Z,16.20
2022-10-15T22:15:10.735Z,16.30
2022-10-15T22:20:13.544Z,16.30
2022-10-15T22:25:16.507Z,16.30
2022-10-15T22:30:20.615Z,16.40
2022-10-15T22:35:23.427Z,16.50
2022-10-15T22:40:26.341Z,16.50
2022-10-15T22:45:31.514Z,16.50
2022-10-15T22:50:34.304Z,16.60
2022-10-15T22:55:37.049Z,16.60
2022-10-15T23:00:41.644Z,16.50
2022-10-15T23:05:44.413Z,16.50
2022-10-15T23:10:47.290Z,16.60
2022-10-15T23:15:51.363Z,16.50
2022-10-15T23:20:54.742Z,16.40
2022-10-15T23:25:57.479Z,16.10
2022-10-15T23:31:01.641Z,16.00
2022-10-15T23:36:05.855Z,15.80
2022-10-15T23:41:09.927Z,15.70
2022-10-15T23:46:14.032Z,15.70
2022-10-15T23:51:20.581Z,15.80
2022-10-15T23:56:23.998Z,15.80
